createdAt,value
2023-03-20T00:02:27.119Z,87.84
2023-03-20T00:07:29.156Z,87.51
2023-03-20T00:12:31.453Z,87.63
2023-03-20T00:17:33.486Z,87.84
2023-03-20T00:22:35.133Z,87.94
2023-03-20T00:27:37.059Z,87.53
2023-03-20T00:32:38.726Z,86.78
2023-03-20T00:37:40.457Z,86.33
2023-03-20T00:42:44.940Z,87.14
2023-03-20T00:47:51.465Z,88.09
2023-03-20T00:52:53.802Z,88.09
2023-03-20T00:57:56.987Z,87.26
2023-03-20T01:02:59.044Z,87.79
2023-03-20T01:08:01.223Z,87.72
2023-03-20T01:13:03.767Z,87.56
2023-03-20T01:18:06.136Z,87.56
2023-03-20T01:23:08.117Z,86.88
2023-03-20T01:28:18.518Z,87.95
2023-03-20T01:33:23.247Z,88.95
2023-03-20T01:38:29.230Z,90.06
2023-03-20T01:43:34.058Z,91.54
2023-03-20T01:48:57.986Z,92.00
2023-03-20T01:54:10.777Z,92.21
2023-03-20T01:59:51.190Z,92.27
2023-03-20T02:04:58.168Z,92.24
2023-03-20T02:10:00.996Z,92.33
2023-03-20T02:15:17.181Z,92.48
2023-03-20T02:20:44.619Z,92.24
2023-03-20T02:26:08.351Z,92.08
2023-03-20T02:31:22.883Z,91.90
2023-03-20T02:36:46.617Z,91.74
2023-03-20T02:42:03.680Z,91.58
2023-03-20T02:47:13.372Z,91.43
2023-03-20T02:52:22.591Z,90.62
2023-03-20T02:57:42.852Z,90.69
2023-03-20T03:02:59.922Z,90.50
2023-03-20T03:08:04.734Z,90.84
2023-03-20T03:13:15.780Z,90.95
2023-03-20T03:18:24.843Z,91.24
2023-03-20T03:23:35.420Z,91.33
2023-03-20T03:28:46.039Z,91.44
2023-03-20T03:33:55.513Z,91.43
2023-03-20T03:39:06.302Z,91.31
2023-03-20T03:44:18.176Z,91.51
2023-03-20T03:49:28.931Z,91.19
2023-03-20T03:54:43.449Z,91.38
2023-03-20T04:00:27.275Z,91.12
2023-03-20T04:05:31.763Z,91.37
2023-03-20T04:10:33.838Z,91.69
2023-03-20T04:15:35.807Z,92.04
2023-03-20T04:20:39.217Z,92.24
2023-03-20T04:25:41.264Z,92.07
2023-03-20T04:30:44.260Z,92.05
2023-03-20T04:35:52.742Z,91.58
2023-03-20T04:40:55.293Z,91.66
2023-03-20T04:45:57.819Z,91.61
2023-03-20T04:50:59.884Z,91.42
2023-03-20T04:56:14.373Z,91.43
2023-03-20T05:01:16.628Z,91.23
2023-03-20T05:06:18.589Z,91.32
2023-03-20T05:11:20.958Z,91.11
2023-03-20T05:16:47.334Z,92.28
2023-03-20T05:22:11.130Z,92.58
2023-03-20T05:27:31.389Z,92.65
2023-03-20T05:32:56.819Z,92.44
2023-03-20T05:38:01.440Z,92.44
2023-03-20T05:43:16.916Z,92.42
2023-03-20T05:48:38.981Z,92.50
2023-03-20T05:54:03.425Z,92.64
2023-03-20T05:59:31.304Z,93.00
2023-03-20T06:05:05.929Z,93.05
2023-03-20T06:10:17.277Z,93.46
2023-03-20T06:15:19.807Z,94.25
2023-03-20T06:20:28.971Z,94.43
2023-03-20T06:25:30.926Z,94.24
2023-03-20T06:30:33.485Z,94.03
2023-03-20T06:35:36.382Z,93.99
2023-03-20T06:40:38.787Z,94.00
2023-03-20T06:45:41.000Z,93.57
2023-03-20T06:50:53.053Z,93.70
2023-03-20T06:55:57.343Z,93.97
2023-03-20T07:00:59.430Z,94.78
2023-03-20T07:06:01.795Z,95.22
2023-03-20T07:11:05.202Z,96.13
2023-03-20T07:16:08.241Z,97.07
2023-03-20T07:21:19.857Z,96.79
2023-03-20T07:26:22.125Z,97.32
2023-03-20T07:31:26.848Z,96.41
2023-03-20T07:36:38.005Z,95.58
2023-03-20T07:41:40.159Z,94.78
2023-03-20T07:46:45.970Z,94.79
2023-03-20T07:51:49.265Z,94.13
2023-03-20T07:56:51.551Z,94.60
2023-03-20T08:01:53.257Z,92.58
2023-03-20T08:06:55.043Z,93.90
2023-03-20T08:11:56.749Z,93.37
2023-03-20T08:17:12.828Z,91.36
2023-03-20T08:22:16.614Z,92.30
2023-03-20T08:27:18.366Z,92.50
2023-03-20T08:32:20.094Z,91.84
2023-03-20T08:37:22.228Z,92.82
2023-03-20T08:42:23.946Z,92.52
2023-03-20T08:47:27.020Z,91.33
2023-03-20T08:52:28.792Z,90.58
2023-03-20T08:57:30.853Z,87.19
2023-03-20T09:02:33.312Z,86.21
2023-03-20T09:07:35.592Z,84.28
2023-03-20T09:12:37.788Z,84.70
2023-03-20T09:17:39.676Z,82.85
2023-03-20T09:22:42.413Z,83.17
2023-03-20T09:27:44.181Z,83.13
2023-03-20T09:32:46.178Z,82.53
2023-03-20T09:37:48.358Z,81.52
2023-03-20T09:42:59.300Z,80.85
2023-03-20T09:48:09.618Z,80.33
2023-03-20T09:53:20.473Z,80.81
2023-03-20T09:58:30.140Z,80.99
2023-03-20T10:03:58.373Z,80.49
2023-03-20T10:09:00.278Z,81.07
2023-03-20T10:14:24.299Z,79.91
2023-03-20T10:19:36.674Z,75.20
2023-03-20T10:24:52.233Z,77.36
2023-03-20T10:30:03.566Z,77.82
2023-03-20T10:35:34.648Z,76.06
2023-03-20T10:40:41.543Z,75.38
2023-03-20T10:45:48.319Z,73.87
2023-03-20T10:50:53.845Z,74.99
2023-03-20T10:55:59.463Z,75.41
2023-03-20T11:01:02.946Z,74.89
2023-03-20T11:06:28.308Z,74.99
2023-03-20T11:11:34.314Z,71.50
2023-03-20T11:16:40.731Z,71.92
2023-03-20T11:21:51.788Z,71.23
2023-03-20T11:26:55.482Z,73.70
2023-03-20T11:32:06.730Z,73.62
2023-03-20T11:37:22.835Z,72.63
2023-03-20T11:42:28.409Z,71.63
2023-03-20T11:47:34.036Z,71.47
2023-03-20T11:52:38.968Z,70.40
2023-03-20T11:57:42.468Z,71.08
2023-03-20T12:02:44.865Z,72.22
2023-03-20T12:07:49.778Z,71.68
2023-03-20T12:12:59.146Z,70.98
2023-03-20T12:18:15.654Z,71.15
2023-03-20T12:23:29.890Z,70.10
2023-03-20T12:28:47.694Z,67.89
2023-03-20T12:34:01.338Z,67.56
2023-03-20T12:39:06.615Z,67.94
2023-03-20T12:44:21.789Z,67.65
2023-03-20T12:49:33.641Z,67.51
2023-03-20T12:55:00.221Z,67.03
2023-03-20T13:00:17.235Z,66.89
2023-03-20T13:05:56.827Z,64.54
2023-03-20T13:11:12.934Z,64.98
2023-03-20T13:16:41.627Z,65.40
2023-03-20T13:21:55.367Z,65.82
2023-03-20T13:27:21.158Z,64.66
2023-03-20T13:32:33.839Z,61.57
2023-03-20T13:37:41.101Z,61.87
2023-03-20T13:42:52.231Z,61.19
2023-03-20T13:47:55.534Z,62.01
2023-03-20T13:53:24.359Z,61.52
2023-03-20T13:59:07.487Z,60.17
2023-03-20T14:04:16.109Z,60.52
2023-03-20T14:09:30.501Z,59.71
2023-03-20T14:14:51.920Z,60.01
2023-03-20T14:19:55.178Z,61.71
2023-03-20T14:25:06.677Z,61.42
2023-03-20T14:30:29.916Z,61.42
2023-03-20T14:35:37.098Z,61.25
2023-03-20T14:40:57.129Z,61.40
2023-03-20T14:46:15.775Z,60.79
2023-03-20T14:51:37.600Z,59.89
2023-03-20T14:56:39.816Z,60.27
2023-03-20T15:01:48.054Z,60.57
2023-03-20T15:07:14.041Z,60.71
2023-03-20T15:12:22.521Z,60.75
2023-03-20T15:17:41.422Z,60.70
2023-03-20T15:23:01.312Z,60.23
2023-03-20T15:28:08.236Z,60.51
2023-03-20T15:33:41.741Z,59.52
2023-03-20T15:38:44.551Z,59.30
2023-03-20T15:43:49.486Z,59.82
2023-03-20T15:48:51.293Z,59.39
2023-03-20T15:53:53.110Z,58.71
2023-03-20T15:58:56.731Z,59.13
2023-03-20T16:03:59.809Z,59.26
2023-03-20T16:09:07.949Z,59.55
2023-03-20T16:14:14.899Z,60.00
2023-03-20T16:19:17.752Z,59.89
2023-03-20T16:24:25.954Z,60.06
2023-03-20T16:29:29.164Z,60.50
2023-03-20T16:34:34.565Z,60.99
2023-03-20T16:39:36.230Z,60.53
2023-03-20T16:44:40.291Z,61.42
2023-03-20T16:49:54.203Z,61.30
2023-03-20T16:55:00.580Z,61.41
2023-03-20T17:00:27.856Z,61.48
2023-03-20T17:05:42.498Z,61.86
2023-03-20T17:10:56.157Z,61.98
2023-03-20T17:15:59.177Z,62.03
2023-03-20T17:21:00.828Z,62.25
2023-03-20T17:26:02.513Z,62.45
2023-03-20T17:31:05.438Z,62.71
2023-03-20T17:36:17.127Z,63.30
2023-03-20T17:41:20.710Z,64.07
2023-03-20T17:46:26.592Z,64.57
2023-03-20T17:51:29.038Z,65.71
2023-03-20T17:56:32.634Z,65.92
2023-03-20T18:01:34.351Z,66.84
2023-03-20T18:06:36.967Z,67.75
2023-03-20T18:11:38.717Z,68.03
2023-03-20T18:16:40.417Z,68.27
2023-03-20T18:21:42.093Z,68.74
2023-03-20T18:26:45.824Z,68.95
2023-03-20T18:31:49.135Z,69.06
2023-03-20T18:36:51.787Z,69.44
2023-03-20T18:41:53.633Z,69.94
2023-03-20T18:46:55.325Z,70.67
2023-03-20T18:51:57.068Z,71.29
2023-03-20T18:57:00.726Z,71.56
2023-03-20T19:02:02.468Z,71.83
2023-03-20T19:07:04.133Z,71.84
2023-03-20T19:12:06.291Z,71.81
2023-03-20T19:17:10.958Z,72.04
2023-03-20T19:22:26.589Z,72.36
2023-03-20T19:27:30.721Z,72.48
2023-03-20T19:32:32.541Z,72.68
2023-03-20T19:37:34.171Z,72.72
2023-03-20T19:42:59.837Z,72.92
2023-03-20T19:47:59.008Z,73.41
2023-03-20T19:53:11.528Z,73.86
2023-03-20T19:58:14.138Z,74.04
2023-03-20T20:03:19.189Z,74.25
2023-03-20T20:08:39.457Z,74.58
2023-03-20T20:14:04.270Z,74.79
2023-03-20T20:19:05.819Z,75.00
2023-03-20T20:24:07.729Z,75.36
2023-03-20T20:29:09.750Z,75.45
2023-03-20T20:39:33.371Z,75.44
2023-03-20T20:44:35.275Z,75.79
2023-03-20T20:49:37.045Z,75.90
2023-03-20T20:54:41.912Z,76.11
2023-03-20T20:59:43.606Z,76.36
2023-03-20T21:04:45.396Z,76.59
2023-03-20T21:09:47.678Z,76.65
2023-03-20T21:14:50.734Z,77.29
2023-03-20T21:19:52.515Z,77.38
2023-03-20T21:25:11.034Z,77.42
2023-03-20T21:30:15.718Z,77.65
2023-03-20T21:35:17.464Z,77.73
2023-03-20T21:40:19.451Z,78.05
2023-03-20T21:51:28.537Z,78.34
2023-03-20T21:56:45.667Z,78.14
2023-03-20T22:07:35.952Z,78.33
2023-03-20T22:12:55.968Z,78.42
2023-03-20T22:18:12.206Z,78.52
2023-03-20T22:29:20.805Z,78.84
2023-03-20T22:34:25.866Z,78.57
2023-03-20T22:49:45.524Z,78.69
2023-03-20T22:54:47.207Z,78.95
2023-03-20T22:59:49.046Z,79.19
2023-03-20T23:04:52.429Z,79.13
2023-03-20T23:09:54.405Z,79.48
2023-03-20T23:14:56.086Z,80.14
2023-03-20T23:20:10.414Z,80.29
2023-03-20T23:25:23.572Z,80.60
2023-03-20T23:30:37.978Z,80.15
2023-03-20T23:35:46.326Z,80.53
2023-03-20T23:40:50.263Z,81.08
2023-03-20T23:45:51.955Z,81.16
2023-03-20T23:50:53.924Z,81.52
2023-03-20T23:55:57.122Z,81.24
